sensor_id;sensor_type;location;lat;lon;timestamp;pressure;altitude;pressure_sealevel;temperature;humidity
54369;BME280;40266;52.434;17.056;2022-08-05T00:02:08;100517.16;;;21.57;59.11
54369;BME280;40266;52.434;17.056;2022-08-05T00:04:56;100515.54;;;21.60;59.17
54369;BME280;40266;52.434;17.056;2022-08-05T00:07:39;100516.96;;;21.63;58.88
54369;BME280;40266;52.434;17.056;2022-08-05T00:10:45;100514.44;;;21.66;58.80
54369;BME280;40266;52.434;17.056;2022-08-05T00:13:33;100516.58;;;21.66;59.00
54369;BME280;40266;52.434;17.056;2022-08-05T00:16:23;100518.30;;;21.61;58.81
54369;BME280;40266;52.434;17.056;2022-08-05T00:19:18;100516.93;;;21.58;58.82
54369;BME280;40266;52.434;17.056;2022-08-05T00:22:03;100515.02;;;21.57;58.58
54369;BME280;40266;52.434;17.056;2022-08-05T00:24:53;100513.91;;;21.58;58.75
54369;BME280;40266;52.434;17.056;2022-08-05T00:27:36;100508.18;;;21.56;58.55
54369;BME280;40266;52.434;17.056;2022-08-05T00:30:24;100510.25;;;21.54;58.42
54369;BME280;40266;52.434;17.056;2022-08-05T00:33:15;100511.64;;;21.55;58.47
54369;BME280;40266;52.434;17.056;2022-08-05T00:36:19;100506.79;;;21.55;58.46
54369;BME280;40266;52.434;17.056;2022-08-05T00:39:24;100507.27;;;21.54;58.30
54369;BME280;40266;52.434;17.056;2022-08-05T00:42:40;100507.44;;;21.51;58.24
54369;BME280;40266;52.434;17.056;2022-08-05T00:45:30;100502.20;;;21.49;58.48
54369;BME280;40266;52.434;17.056;2022-08-05T00:48:28;100502.48;;;21.45;58.73
54369;BME280;40266;52.434;17.056;2022-08-05T00:51:22;100495.16;;;21.40;58.65
54369;BME280;40266;52.434;17.056;2022-08-05T00:54:28;100494.94;;;21.35;59.20
54369;BME280;40266;52.434;17.056;2022-08-05T00:57:12;100495.36;;;21.29;59.31
54369;BME280;40266;52.434;17.056;2022-08-05T00:59:55;100498.90;;;21.20;59.13
54369;BME280;40266;52.434;17.056;2022-08-05T01:02:38;100499.45;;;21.17;59.46
54369;BME280;40266;52.434;17.056;2022-08-05T01:05:27;100500.37;;;21.12;59.16
54369;BME280;40266;52.434;17.056;2022-08-05T01:08:12;100500.47;;;21.07;59.64
54369;BME280;40266;52.434;17.056;2022-08-05T01:11:27;100499.58;;;20.99;59.81
54369;BME280;40266;52.434;17.056;2022-08-05T01:14:50;100498.84;;;20.94;59.91
54369;BME280;40266;52.434;17.056;2022-08-05T01:24:04;100489.90;;;20.78;60.29
54369;BME280;40266;52.434;17.056;2022-08-05T01:27:11;100488.48;;;20.72;60.71
54369;BME280;40266;52.434;17.056;2022-08-05T01:30:07;100480.65;;;20.64;60.87
54369;BME280;40266;52.434;17.056;2022-08-05T01:33:08;100487.86;;;20.56;61.07
54369;BME280;40266;52.434;17.056;2022-08-05T01:35:58;100485.48;;;20.48;61.23
54369;BME280;40266;52.434;17.056;2022-08-05T01:38:45;100480.29;;;20.40;61.50
54369;BME280;40266;52.434;17.056;2022-08-05T01:41:34;100482.55;;;20.33;61.89
54369;BME280;40266;52.434;17.056;2022-08-05T01:44:19;100481.69;;;20.23;62.07
54369;BME280;40266;52.434;17.056;2022-08-05T01:47:18;100479.42;;;20.14;62.22
54369;BME280;40266;52.434;17.056;2022-08-05T01:50:05;100478.54;;;20.05;62.77
54369;BME280;40266;52.434;17.056;2022-08-05T01:53:03;100475.41;;;19.95;62.84
54369;BME280;40266;52.434;17.056;2022-08-05T01:55:59;100474.45;;;19.84;62.87
54369;BME280;40266;52.434;17.056;2022-08-05T01:58:55;100476.60;;;19.75;63.10
54369;BME280;40266;52.434;17.056;2022-08-05T02:01:55;100471.30;;;19.65;63.41
54369;BME280;40266;52.434;17.056;2022-08-05T02:04:44;100474.27;;;19.57;63.70
54369;BME280;40266;52.434;17.056;2022-08-05T02:07:31;100468.05;;;19.48;63.80
54369;BME280;40266;52.434;17.056;2022-08-05T02:10:26;100466.10;;;19.39;64.06
54369;BME280;40266;52.434;17.056;2022-08-05T02:13:23;100464.41;;;19.31;64.24
54369;BME280;40266;52.434;17.056;2022-08-05T02:16:43;100463.62;;;19.23;64.66
54369;BME280;40266;52.434;17.056;2022-08-05T02:19:57;100461.61;;;19.15;64.90
54369;BME280;40266;52.434;17.056;2022-08-05T02:22:47;100464.49;;;19.07;65.18
54369;BME280;40266;52.434;17.056;2022-08-05T02:25:34;100462.80;;;19.00;65.35
54369;BME280;40266;52.434;17.056;2022-08-05T02:28:42;100463.09;;;18.91;65.70
54369;BME280;40266;52.434;17.056;2022-08-05T02:31:37;100456.30;;;18.83;66.00
54369;BME280;40266;52.434;17.056;2022-08-05T02:34:28;100459.33;;;18.76;66.38
54369;BME280;40266;52.434;17.056;2022-08-05T02:37:16;100455.98;;;18.69;66.70
54369;BME280;40266;52.434;17.056;2022-08-05T02:40:04;100455.05;;;18.63;66.87
54369;BME280;40266;52.434;17.056;2022-08-05T02:43:12;100445.79;;;18.55;67.20
54369;BME280;40266;52.434;17.056;2022-08-05T02:46:09;100450.27;;;18.47;67.57
54369;BME280;40266;52.434;17.056;2022-08-05T02:48:58;100449.37;;;18.41;67.65
54369;BME280;40266;52.434;17.056;2022-08-05T02:51:44;100447.02;;;18.35;67.93
54369;BME280;40266;52.434;17.056;2022-08-05T02:54:49;100447.23;;;18.28;68.16
54369;BME280;40266;52.434;17.056;2022-08-05T03:01:08;100442.30;;;18.14;68.80
54369;BME280;40266;52.434;17.056;2022-08-05T03:03:59;100439.95;;;18.09;69.02
54369;BME280;40266;52.434;17.056;2022-08-05T03:10:09;100431.91;;;17.97;69.48
54369;BME280;40266;52.434;17.056;2022-08-05T03:13:38;100428.70;;;17.90;69.79
54369;BME280;40266;52.434;17.056;2022-08-05T03:16:43;100432.91;;;17.84;70.03
54369;BME280;40266;52.434;17.056;2022-08-05T03:19:49;100431.73;;;17.79;70.29
54369;BME280;40266;52.434;17.056;2022-08-05T03:23:16;100433.09;;;17.73;70.43
54369;BME280;40266;52.434;17.056;2022-08-05T03:26:02;100434.97;;;17.67;70.66
54369;BME280;40266;52.434;17.056;2022-08-05T03:29:17;100430.94;;;17.63;71.00
54369;BME280;40266;52.434;17.056;2022-08-05T03:32:44;100423.84;;;17.57;71.22
54369;BME280;40266;52.434;17.056;2022-08-05T03:35:50;100424.01;;;17.54;71.36
54369;BME280;40266;52.434;17.056;2022-08-05T03:38:51;100422.39;;;17.50;71.57
54369;BME280;40266;52.434;17.056;2022-08-05T03:41:44;100417.76;;;17.48;71.88
54369;BME280;40266;52.434;17.056;2022-08-05T03:44:39;100416.06;;;17.46;72.10
54369;BME280;40266;52.434;17.056;2022-08-05T03:47:25;100413.52;;;17.44;72.24
54369;BME280;40266;52.434;17.056;2022-08-05T03:50:32;100416.23;;;17.43;72.51
54369;BME280;40266;52.434;17.056;2022-08-05T03:54:07;100420.16;;;17.42;72.71
54369;BME280;40266;52.434;17.056;2022-08-05T04:00:31;100421.02;;;17.42;73.15
54369;BME280;40266;52.434;17.056;2022-08-05T04:03:24;100419.84;;;17.45;73.24
54369;BME280;40266;52.434;17.056;2022-08-05T04:06:18;100420.05;;;17.48;73.62
54369;BME280;40266;52.434;17.056;2022-08-05T04:09:03;100414.96;;;17.50;73.76
54369;BME280;40266;52.434;17.056;2022-08-05T04:11:48;100416.20;;;17.55;73.84
54369;BME280;40266;52.434;17.056;2022-08-05T04:14:38;100419.65;;;17.59;74.02
54369;BME280;40266;52.434;17.056;2022-08-05T04:17:21;100421.19;;;17.64;74.11
54369;BME280;40266;52.434;17.056;2022-08-05T04:20:39;100421.59;;;17.70;74.25
54369;BME280;40266;52.434;17.056;2022-08-05T04:23:36;100418.49;;;17.75;74.40
54369;BME280;40266;52.434;17.056;2022-08-05T04:26:52;100416.45;;;17.81;74.52
54369;BME280;40266;52.434;17.056;2022-08-05T04:30:00;100412.83;;;17.86;74.50
54369;BME280;40266;52.434;17.056;2022-08-05T04:32:48;100413.67;;;17.94;74.58
54369;BME280;40266;52.434;17.056;2022-08-05T04:35:42;100414.35;;;18.01;74.49
54369;BME280;40266;52.434;17.056;2022-08-05T04:38:55;100414.11;;;18.13;74.31
54369;BME280;40266;52.434;17.056;2022-08-05T04:41:39;100411.31;;;18.32;74.00
54369;BME280;40266;52.434;17.056;2022-08-05T04:44:25;100413.77;;;18.52;74.01
54369;BME280;40266;52.434;17.056;2022-08-05T04:47:15;100407.72;;;18.72;73.33
54369;BME280;40266;52.434;17.056;2022-08-05T04:50:02;100407.33;;;18.80;73.08
54369;BME280;40266;52.434;17.056;2022-08-05T04:55:50;100408.25;;;18.94;72.97
54369;BME280;40266;52.434;17.056;2022-08-05T04:58:57;100408.94;;;19.04;72.90
54369;BME280;40266;52.434;17.056;2022-08-05T05:02:20;100408.48;;;19.16;72.48
54369;BME280;40266;52.434;17.056;2022-08-05T05:05:28;100405.25;;;19.29;71.97
54369;BME280;40266;52.434;17.056;2022-08-05T05:08:35;100406.95;;;19.51;70.88
54369;BME280;40266;52.434;17.056;2022-08-05T05:11:27;100404.91;;;19.83;69.56
54369;BME280;40266;52.434;17.056;2022-08-05T05:14:30;100404.00;;;20.10;68.76
54369;BME280;40266;52.434;17.056;2022-08-05T05:17:17;100401.38;;;20.35;68.87
54369;BME280;40266;52.434;17.056;2022-08-05T05:20:06;100404.49;;;20.62;68.19
54369;BME280;40266;52.434;17.056;2022-08-05T05:22:53;100403.20;;;20.88;67.36
54369;BME280;40266;52.434;17.056;2022-08-05T05:25:36;100402.69;;;21.49;66.07
54369;BME280;40266;52.434;17.056;2022-08-05T05:28:22;100404.04;;;22.54;64.00
54369;BME280;40266;52.434;17.056;2022-08-05T05:31:13;100400.39;;;23.02;62.23
54369;BME280;40266;52.434;17.056;2022-08-05T05:34:01;100394.77;;;23.39;61.75
54369;BME280;40266;52.434;17.056;2022-08-05T05:36:44;100394.33;;;23.99;58.98
54369;BME280;40266;52.434;17.056;2022-08-05T05:39:32;100390.96;;;24.30;56.84
54369;BME280;40266;52.434;17.056;2022-08-05T05:42:17;100394.40;;;24.32;54.91
54369;BME280;40266;52.434;17.056;2022-08-05T05:45:05;100392.23;;;24.59;53.97
54369;BME280;40266;52.434;17.056;2022-08-05T05:47:48;100394.65;;;25.28;53.10
54369;BME280;40266;52.434;17.056;2022-08-05T05:50:50;100395.17;;;25.30;51.24
54369;BME280;40266;52.434;17.056;2022-08-05T05:53:34;100396.43;;;25.04;51.47
54369;BME280;40266;52.434;17.056;2022-08-05T05:56:37;100391.59;;;24.91;52.78
54369;BME280;40266;52.434;17.056;2022-08-05T05:59:24;100384.80;;;24.83;52.10
54369;BME280;40266;52.434;17.056;2022-08-05T06:02:10;100385.59;;;24.75;52.63
54369;BME280;40266;52.434;17.056;2022-08-05T06:04:53;100385.52;;;24.67;52.12
54369;BME280;40266;52.434;17.056;2022-08-05T06:07:41;100389.38;;;24.59;51.32
54369;BME280;40266;52.434;17.056;2022-08-05T06:10:42;100392.63;;;24.63;52.27
54369;BME280;40266;52.434;17.056;2022-08-05T06:13:34;100390.70;;;25.34;50.74
54369;BME280;40266;52.434;17.056;2022-08-05T06:16:22;100385.24;;;25.74;49.95
54369;BME280;40266;52.434;17.056;2022-08-05T06:19:13;100386.14;;;25.84;49.98
54369;BME280;40266;52.434;17.056;2022-08-05T06:22:22;100386.21;;;25.94;49.43
54369;BME280;40266;52.434;17.056;2022-08-05T06:25:07;100393.43;;;25.91;47.78
54369;BME280;40266;52.434;17.056;2022-08-05T06:28:13;100390.73;;;25.83;47.78
54369;BME280;40266;52.434;17.056;2022-08-05T06:31:03;100397.84;;;25.81;48.17
54369;BME280;40266;52.434;17.056;2022-08-05T06:34:00;100394.60;;;25.85;47.99
54369;BME280;40266;52.434;17.056;2022-08-05T06:36:55;100396.45;;;25.94;47.65
54369;BME280;40266;52.434;17.056;2022-08-05T06:39:43;100398.02;;;25.90;47.91
54369;BME280;40266;52.434;17.056;2022-08-05T06:42:27;100394.58;;;25.90;47.73
54369;BME280;40266;52.434;17.056;2022-08-05T06:45:10;100394.11;;;25.94;48.22
54369;BME280;40266;52.434;17.056;2022-08-05T06:48:20;100391.12;;;26.00;48.85
54369;BME280;40266;52.434;17.056;2022-08-05T06:51:23;100391.31;;;25.99;48.17
54369;BME280;40266;52.434;17.056;2022-08-05T06:54:12;100391.70;;;26.01;47.17
54369;BME280;40266;52.434;17.056;2022-08-05T06:57:01;100384.45;;;26.04;47.15
54369;BME280;40266;52.434;17.056;2022-08-05T07:00:05;100382.11;;;26.04;47.87
54369;BME280;40266;52.434;17.056;2022-08-05T07:02:56;100385.02;;;26.08;47.70
54369;BME280;40266;52.434;17.056;2022-08-05T07:05:43;100383.11;;;26.18;47.70
54369;BME280;40266;52.434;17.056;2022-08-05T07:08:49;100376.60;;;26.22;47.18
54369;BME280;40266;52.434;17.056;2022-08-05T07:11:36;100375.73;;;26.26;48.14
54369;BME280;40266;52.434;17.056;2022-08-05T07:14:21;100372.40;;;26.29;48.76
54369;BME280;40266;52.434;17.056;2022-08-05T07:17:25;100371.98;;;26.30;47.51
54369;BME280;40266;52.434;17.056;2022-08-05T07:20:39;100370.05;;;26.34;46.61
54369;BME280;40266;52.434;17.056;2022-08-05T07:23:25;100374.15;;;26.54;45.33
54369;BME280;40266;52.434;17.056;2022-08-05T07:26:17;100375.89;;;26.67;45.84
54369;BME280;40266;52.434;17.056;2022-08-05T07:29:08;100372.30;;;26.69;46.19
54369;BME280;40266;52.434;17.056;2022-08-05T07:31:51;100373.07;;;26.72;46.07
54369;BME280;40266;52.434;17.056;2022-08-05T07:34:36;100374.02;;;26.76;45.20
54369;BME280;40266;52.434;17.056;2022-08-05T07:37:24;100374.91;;;26.82;46.10
54369;BME280;40266;52.434;17.056;2022-08-05T07:40:17;100373.77;;;26.86;44.65
54369;BME280;40266;52.434;17.056;2022-08-05T07:43:14;100372.23;;;26.92;45.00
54369;BME280;40266;52.434;17.056;2022-08-05T07:46:02;100368.63;;;27.00;45.00
54369;BME280;40266;52.434;17.056;2022-08-05T07:49:02;100366.52;;;27.17;45.32
54369;BME280;40266;52.434;17.056;2022-08-05T07:51:49;100360.91;;;27.41;44.05
54369;BME280;40266;52.434;17.056;2022-08-05T07:54:37;100362.03;;;27.50;44.91
54369;BME280;40266;52.434;17.056;2022-08-05T07:57:30;100364.63;;;27.59;45.33
54369;BME280;40266;52.434;17.056;2022-08-05T08:00:36;100366.82;;;27.70;44.89
54369;BME280;40266;52.434;17.056;2022-08-05T08:03:19;100370.27;;;27.77;44.43
54369;BME280;40266;52.434;17.056;2022-08-05T08:06:03;100370.52;;;27.82;43.78
54369;BME280;40266;52.434;17.056;2022-08-05T08:08:46;100374.14;;;27.84;42.97
54369;BME280;40266;52.434;17.056;2022-08-05T08:11:30;100373.56;;;27.90;43.20
54369;BME280;40266;52.434;17.056;2022-08-05T08:14:34;100373.52;;;28.06;43.51
54369;BME280;40266;52.434;17.056;2022-08-05T08:17:17;100374.48;;;28.14;43.94
54369;BME280;40266;52.434;17.056;2022-08-05T08:20:03;100373.09;;;28.23;42.78
54369;BME280;40266;52.434;17.056;2022-08-05T08:23:09;100368.27;;;28.47;42.92
54369;BME280;40266;52.434;17.056;2022-08-05T08:26:12;100359.89;;;28.85;42.84
54369;BME280;40266;52.434;17.056;2022-08-05T08:28:59;100361.48;;;29.27;42.41
54369;BME280;40266;52.434;17.056;2022-08-05T08:32:03;100363.15;;;29.86;41.48
54369;BME280;40266;52.434;17.056;2022-08-05T08:34:52;100357.08;;;30.73;40.58
54369;BME280;40266;52.434;17.056;2022-08-05T08:37:38;100356.10;;;31.45;38.77
54369;BME280;40266;52.434;17.056;2022-08-05T08:40:26;100358.92;;;31.96;37.43
54369;BME280;40266;52.434;17.056;2022-08-05T08:43:11;100357.70;;;32.84;37.18
54369;BME280;40266;52.434;17.056;2022-08-05T08:46:16;100355.56;;;34.16;34.32
54369;BME280;40266;52.434;17.056;2022-08-05T08:49:03;100357.21;;;35.69;32.44
54369;BME280;40266;52.434;17.056;2022-08-05T08:52:16;100353.65;;;37.54;31.07
54369;BME280;40266;52.434;17.056;2022-08-05T08:55:01;100359.51;;;38.85;27.74
54369;BME280;40266;52.434;17.056;2022-08-05T08:57:55;100356.72;;;39.57;27.23
54369;BME280;40266;52.434;17.056;2022-08-05T09:00:40;100355.00;;;38.80;26.43
54369;BME280;40266;52.434;17.056;2022-08-05T09:03:27;100350.02;;;37.47;27.05
54369;BME280;40266;52.434;17.056;2022-08-05T09:06:29;100349.89;;;36.04;27.58
54369;BME280;40266;52.434;17.056;2022-08-05T09:09:13;100349.36;;;35.15;30.47
54369;BME280;40266;52.434;17.056;2022-08-05T09:11:58;100351.73;;;34.66;30.66
54369;BME280;40266;52.434;17.056;2022-08-05T09:14:57;100352.55;;;33.94;30.91
54369;BME280;40266;52.434;17.056;2022-08-05T09:17:48;100350.67;;;33.51;31.97
54369;BME280;40266;52.434;17.056;2022-08-05T09:20:31;100342.00;;;33.21;32.45
54369;BME280;40266;52.434;17.056;2022-08-05T09:23:20;100338.95;;;32.87;32.74
54369;BME280;40266;52.434;17.056;2022-08-05T09:26:08;100341.83;;;32.59;33.51
54369;BME280;40266;52.434;17.056;2022-08-05T09:29:05;100341.91;;;32.37;33.80
54369;BME280;40266;52.434;17.056;2022-08-05T09:32:01;100341.94;;;32.13;34.07
54369;BME280;40266;52.434;17.056;2022-08-05T09:35:13;100345.61;;;31.99;34.63
54369;BME280;40266;52.434;17.056;2022-08-05T09:38:09;100345.73;;;31.94;34.98
54369;BME280;40266;52.434;17.056;2022-08-05T09:41:07;100339.95;;;31.96;35.24
54369;BME280;40266;52.434;17.056;2022-08-05T09:43:57;100338.08;;;31.97;35.45
54369;BME280;40266;52.434;17.056;2022-08-05T09:46:40;100332.75;;;31.94;34.99
54369;BME280;40266;52.434;17.056;2022-08-05T09:49:46;100331.42;;;31.96;35.28
54369;BME280;40266;52.434;17.056;2022-08-05T09:52:44;100330.66;;;31.97;35.34
54369;BME280;40266;52.434;17.056;2022-08-05T09:55:36;100324.78;;;31.94;35.30
54369;BME280;40266;52.434;17.056;2022-08-05T09:58:39;100324.48;;;31.99;35.04
54369;BME280;40266;52.434;17.056;2022-08-05T10:01:23;100314.56;;;32.02;34.83
54369;BME280;40266;52.434;17.056;2022-08-05T10:04:16;100307.27;;;32.05;34.75
54369;BME280;40266;52.434;17.056;2022-08-05T10:07:10;100313.02;;;32.06;35.07
54369;BME280;40266;52.434;17.056;2022-08-05T10:10:02;100315.95;;;32.07;35.17
54369;BME280;40266;52.434;17.056;2022-08-05T10:12:59;100316.03;;;32.06;35.46
54369;BME280;40266;52.434;17.056;2022-08-05T10:15:52;100313.88;;;32.11;35.93
54369;BME280;40266;52.434;17.056;2022-08-05T10:18:36;100308.43;;;32.11;34.64
54369;BME280;40266;52.434;17.056;2022-08-05T10:21:20;100308.02;;;32.12;35.49
54369;BME280;40266;52.434;17.056;2022-08-05T10:24:04;100305.29;;;32.08;34.15
54369;BME280;40266;52.434;17.056;2022-08-05T10:26:52;100298.84;;;32.05;33.58
54369;BME280;40266;52.434;17.056;2022-08-05T10:29:44;100293.08;;;31.97;34.26
54369;BME280;40266;52.434;17.056;2022-08-05T10:32:47;100293.34;;;31.98;34.73
54369;BME280;40266;52.434;17.056;2022-08-05T10:35:44;100288.21;;;31.95;33.81
54369;BME280;40266;52.434;17.056;2022-08-05T10:38:45;100282.16;;;31.94;34.63
54369;BME280;40266;52.434;17.056;2022-08-05T10:41:46;100280.73;;;32.01;35.34
54369;BME280;40266;52.434;17.056;2022-08-05T10:44:42;100283.55;;;32.09;35.59
54369;BME280;40266;52.434;17.056;2022-08-05T10:47:30;100280.05;;;32.17;35.03
54369;BME280;40266;52.434;17.056;2022-08-05T10:50:14;100283.16;;;32.21;34.91
54369;BME280;40266;52.434;17.056;2022-08-05T10:56:29;100278.12;;;32.23;33.96
54369;BME280;40266;52.434;17.056;2022-08-05T10:59:30;100279.37;;;32.19;33.41
54369;BME280;40266;52.434;17.056;2022-08-05T11:02:36;100277.85;;;32.16;33.76
54369;BME280;40266;52.434;17.056;2022-08-05T11:05:33;100276.39;;;32.18;33.85
54369;BME280;40266;52.434;17.056;2022-08-05T11:08:17;100273.00;;;32.24;33.85
54369;BME280;40266;52.434;17.056;2022-08-05T11:11:33;100275.27;;;32.31;33.40
54369;BME280;40266;52.434;17.056;2022-08-05T11:14:35;100270.45;;;32.32;33.51
54369;BME280;40266;52.434;17.056;2022-08-05T11:17:42;100266.02;;;32.42;33.58
54369;BME280;40266;52.434;17.056;2022-08-05T11:20:44;100263.95;;;32.54;33.45
54369;BME280;40266;52.434;17.056;2022-08-05T11:23:42;100262.71;;;32.66;33.22
54369;BME280;40266;52.434;17.056;2022-08-05T11:26:49;100262.93;;;32.73;33.32
54369;BME280;40266;52.434;17.056;2022-08-05T11:29:36;100258.63;;;32.82;33.19
54369;BME280;40266;52.434;17.056;2022-08-05T11:32:27;100261.27;;;32.90;32.72
54369;BME280;40266;52.434;17.056;2022-08-05T11:38:51;100255.23;;;33.15;33.36
54369;BME280;40266;52.434;17.056;2022-08-05T11:41:40;100259.46;;;33.27;32.93
54369;BME280;40266;52.434;17.056;2022-08-05T11:44:44;100263.00;;;33.34;33.37
54369;BME280;40266;52.434;17.056;2022-08-05T11:47:36;100260.67;;;33.35;32.44
54369;BME280;40266;52.434;17.056;2022-08-05T11:50:36;100256.05;;;33.33;33.52
54369;BME280;40266;52.434;17.056;2022-08-05T11:53:23;100257.71;;;33.29;32.52
54369;BME280;40266;52.434;17.056;2022-08-05T11:56:07;100257.54;;;33.31;33.05
54369;BME280;40266;52.434;17.056;2022-08-05T11:58:52;100257.19;;;33.37;33.39
54369;BME280;40266;52.434;17.056;2022-08-05T12:01:35;100254.16;;;33.45;33.15
54369;BME280;40266;52.434;17.056;2022-08-05T12:04:20;100258.33;;;33.39;31.75
54369;BME280;40266;52.434;17.056;2022-08-05T12:07:05;100256.27;;;33.32;31.40
54369;BME280;40266;52.434;17.056;2022-08-05T12:09:58;100250.75;;;33.33;32.35
54369;BME280;40266;52.434;17.056;2022-08-05T12:12:51;100252.11;;;33.43;32.11
54369;BME280;40266;52.434;17.056;2022-08-05T12:15:45;100250.77;;;33.51;32.19
54369;BME280;40266;52.434;17.056;2022-08-05T12:18:35;100248.76;;;33.56;32.37
54369;BME280;40266;52.434;17.056;2022-08-05T12:21:23;100245.42;;;33.58;32.06
54369;BME280;40266;52.434;17.056;2022-08-05T12:24:18;100243.85;;;33.59;31.23
54369;BME280;40266;52.434;17.056;2022-08-05T12:27:01;100239.54;;;33.66;32.15
54369;BME280;40266;52.434;17.056;2022-08-05T12:30:06;100235.02;;;33.75;31.51
54369;BME280;40266;52.434;17.056;2022-08-05T12:32:50;100234.85;;;33.82;30.89
54369;BME280;40266;52.434;17.056;2022-08-05T12:35:37;100232.29;;;33.85;30.34
54369;BME280;40266;52.434;17.056;2022-08-05T12:38:24;100236.10;;;33.89;30.60
54369;BME280;40266;52.434;17.056;2022-08-05T12:41:14;100231.52;;;33.93;31.85
54369;BME280;40266;52.434;17.056;2022-08-05T12:46:54;100228.06;;;34.03;31.43
54369;BME280;40266;52.434;17.056;2022-08-05T12:49:45;100226.23;;;34.06;30.13
54369;BME280;40266;52.434;17.056;2022-08-05T12:52:55;100219.11;;;34.09;29.90
54369;BME280;40266;52.434;17.056;2022-08-05T12:55:39;100210.77;;;34.10;30.62
54369;BME280;40266;52.434;17.056;2022-08-05T12:58:24;100208.52;;;34.11;29.88
54369;BME280;40266;52.434;17.056;2022-08-05T13:01:29;100208.13;;;34.13;30.44
54369;BME280;40266;52.434;17.056;2022-08-05T13:04:38;100204.73;;;34.16;30.44
54369;BME280;40266;52.434;17.056;2022-08-05T13:07:38;100208.38;;;34.20;29.83
54369;BME280;40266;52.434;17.056;2022-08-05T13:10:42;100204.44;;;34.24;29.79
54369;BME280;40266;52.434;17.056;2022-08-05T13:13:32;100208.66;;;34.29;29.27
54369;BME280;40266;52.434;17.056;2022-08-05T13:16:46;100199.84;;;34.19;30.73
54369;BME280;40266;52.434;17.056;2022-08-05T13:19:29;100193.59;;;34.14;30.90
54369;BME280;40266;52.434;17.056;2022-08-05T13:22:35;100193.45;;;34.13;30.26
54369;BME280;40266;52.434;17.056;2022-08-05T13:25:20;100194.02;;;34.15;30.70
54369;BME280;40266;52.434;17.056;2022-08-05T13:28:23;100194.31;;;34.20;30.65
54369;BME280;40266;52.434;17.056;2022-08-05T13:31:06;100189.31;;;34.25;31.35
54369;BME280;40266;52.434;17.056;2022-08-05T13:33:56;100183.15;;;34.28;30.75
54369;BME280;40266;52.434;17.056;2022-08-05T13:36:59;100176.81;;;34.30;30.53
54369;BME280;40266;52.434;17.056;2022-08-05T13:39:42;100177.09;;;34.32;29.66
54369;BME280;40266;52.434;17.056;2022-08-05T13:42:45;100170.40;;;34.37;28.73
54369;BME280;40266;52.434;17.056;2022-08-05T13:45:28;100172.92;;;34.43;27.84
54369;BME280;40266;52.434;17.056;2022-08-05T13:48:21;100174.77;;;34.52;27.57
54369;BME280;40266;52.434;17.056;2022-08-05T13:51:27;100172.14;;;34.61;27.82
54369;BME280;40266;52.434;17.056;2022-08-05T13:54:18;100170.38;;;34.67;28.50
54369;BME280;40266;52.434;17.056;2022-08-05T13:57:07;100164.50;;;34.71;28.50
54369;BME280;40266;52.434;17.056;2022-08-05T13:59:51;100165.56;;;34.73;27.22
54369;BME280;40266;52.434;17.056;2022-08-05T14:02:40;100163.52;;;34.75;27.90
54369;BME280;40266;52.434;17.056;2022-08-05T14:05:23;100157.90;;;34.73;26.94
54369;BME280;40266;52.434;17.056;2022-08-05T14:08:26;100156.48;;;34.74;26.95
54369;BME280;40266;52.434;17.056;2022-08-05T14:11:15;100156.13;;;34.77;26.78
54369;BME280;40266;52.434;17.056;2022-08-05T14:14:03;100155.81;;;34.79;26.47
54369;BME280;40266;52.434;17.056;2022-08-05T14:16:46;100154.00;;;34.82;27.75
54369;BME280;40266;52.434;17.056;2022-08-05T14:19:36;100158.25;;;34.84;27.71
54369;BME280;40266;52.434;17.056;2022-08-05T14:22:37;100155.92;;;34.83;27.44
54369;BME280;40266;52.434;17.056;2022-08-05T14:25:32;100154.63;;;34.83;27.48
54369;BME280;40266;52.434;17.056;2022-08-05T14:28:15;100158.05;;;34.82;27.38
54369;BME280;40266;52.434;17.056;2022-08-05T14:31:08;100153.35;;;34.80;27.49
54369;BME280;40266;52.434;17.056;2022-08-05T14:34:11;100146.55;;;34.73;27.30
54369;BME280;40266;52.434;17.056;2022-08-05T14:36:55;100148.45;;;34.69;27.88
54369;BME280;40266;52.434;17.056;2022-08-05T14:39:40;100144.70;;;34.65;27.54
54369;BME280;40266;52.434;17.056;2022-08-05T14:42:39;100142.92;;;34.62;26.93
54369;BME280;40266;52.434;17.056;2022-08-05T14:45:24;100144.73;;;34.61;26.80
54369;BME280;40266;52.434;17.056;2022-08-05T14:48:08;100145.34;;;34.62;27.30
54369;BME280;40266;52.434;17.056;2022-08-05T14:51:11;100145.27;;;34.60;27.02
54369;BME280;40266;52.434;17.056;2022-08-05T14:53:59;100141.91;;;34.56;27.00
54369;BME280;40266;52.434;17.056;2022-08-05T14:57:02;100145.94;;;34.57;26.63
54369;BME280;40266;52.434;17.056;2022-08-05T14:59:51;100141.98;;;34.57;26.83
54369;BME280;40266;52.434;17.056;2022-08-05T15:02:34;100141.92;;;34.60;27.75
54369;BME280;40266;52.434;17.056;2022-08-05T15:05:21;100141.95;;;34.60;27.17
54369;BME280;40266;52.434;17.056;2022-08-05T15:08:11;100135.20;;;34.60;26.87
54369;BME280;40266;52.434;17.056;2022-08-05T15:11:16;100131.77;;;34.60;27.66
54369;BME280;40266;52.434;17.056;2022-08-05T15:14:22;100130.27;;;34.59;27.56
54369;BME280;40266;52.434;17.056;2022-08-05T15:17:24;100124.09;;;34.55;26.89
54369;BME280;40266;52.434;17.056;2022-08-05T15:20:27;100120.64;;;34.48;27.03
54369;BME280;40266;52.434;17.056;2022-08-05T15:23:11;100120.20;;;34.40;27.48
54369;BME280;40266;52.434;17.056;2022-08-05T15:25:54;100118.48;;;34.26;27.48
54369;BME280;40266;52.434;17.056;2022-08-05T15:28:44;100119.95;;;34.11;28.13